Nashville, IN (47448)

7:31 PM EST on March 04, 2015 (GMT -0500)
Designscape | Change Station
CLOSE
Current Station
Personal Weather Station
Location: Nashville, IN
Elevation: 574 ft
Nearby Weather Stations
Active Advisory: Winter Weather Advisory

Elev 574 ft 39.15 °N, 86.34 °W | Updated 24 seconds ago

Snow
Snow
22.8 °F
Feels Like 23 °F
N
1.0
Wind Variable Wind from ENE
Gusts 2.0 mph

Today
High -- | Low -- °F
--% Chance of Precip.
Yesterday
High -- | Low -- °F
Precip. -- in
7:13 AM 6:40 PM
Full, 100% visible
Pressure 30.18 in
Visibility 10.0 miles
Clouds Scattered Clouds 2300 ft
Mostly Cloudy 3100 ft
Overcast 4000 ft
Windchill 23 °F
Dew Point 19 °F
Humidity 84%
Rainfall 0.42 in
Snow Depth Not available.
UV 0 out of 12
Pollen .70 out of 12
Air Quality Not available.
Flu Activity Not available.
METAR K1II 050015Z AUTO 33013G17KT 10SM -SN SCT023 BKN031 OVC040 M05/M08 A3018 RMK AO2

More Conditions Fewer Conditions

Pressure 30.18 in
Visibility 10.0 miles
Clouds Scattered Clouds 2300 ft
Mostly Cloudy 3100 ft
Overcast 4000 ft
Windchill 23 °F
Dew Point 19 °F
Humidity 84%
Rainfall 0.42 in
Snow Depth Not available.
UV 0 out of 12
Pollen .70 out of 12
Air Quality Not available.
Flu Activity Not available.
METAR K1II 050015Z AUTO 33013G17KT 10SM -SN SCT023 BKN031 OVC040 M05/M08 A3018 RMK AO2

More Conditions Fewer Conditions

10-Day Weather Forecast

Almanac

Astronomy

Mar. 04, 2015 Rise Set
Actual Time
Civil Twilight
Nautical Twilight
Astronomical Twilight
Moon
Length of Visible Light
Length of Day
Tomorrow will be .
, % of the Moon is Illuminated

Today's Extremes

State Highs State Lows

Community

WunderPhotos

Upload Photos

1,802,606 photos uploaded!

WunderBlogs® & News

Nearby

Air Quality

  Air Quality AQ Index Pollutant
Not available.

Snow Depth

Station Depth Elevation

Earthquake Activity

City Distance Mag. Time & Date
Minimum magnitude displayed is 2.5.

Coastal Water Temperatures

Place Temperature

Nearby Weather Stations

Winter Weather Advisory
Statement as of 3:32 PM EST on March 04, 2015

... Winter Weather Advisory remains in effect until 9 am EST
Thursday...

A Winter Weather Advisory remains in effect until 9 am EST
Thursday.

* Main impact: accumulating snow may make travel difficult at
times especially this afternoon into early Thursday morning.

* Accumulations: 2 to 5 inches are expected by Thursday morning.
Areas from Brownstown and Seymour east through North Vernon may
approach 6 inches. 1 to 3 inches are expected in the Bloomington
and Columbus areas.

* Timing: snow is overspreading the area this afternoon and will continue
into early Thursday.

Precautionary/preparedness actions...

A Winter Weather Advisory for snow means that periods of snow
will cause primarily travel difficulties. Be prepared for snow
covered roads and limited visibilities... and use caution while
driving.